createdAt,value
2022-09-15T00:02:46.934Z,98859.69
2022-09-15T00:05:50.711Z,98860.16
2022-09-15T00:08:54.537Z,98855.59
2022-09-15T00:11:57.604Z,98848.88
2022-09-15T00:15:00.967Z,98844.53
2022-09-15T00:18:05.111Z,98828.50
2022-09-15T00:21:10.202Z,98836.91
2022-09-15T00:24:13.438Z,98820.16
2022-09-15T00:27:16.828Z,98770.62
2022-09-15T00:30:19.897Z,98749.59
2022-09-15T00:33:23.194Z,98768.19
2022-09-15T00:36:26.984Z,98770.38
2022-09-15T00:39:29.755Z,98763.41
2022-09-15T00:42:32.963Z,98803.87
2022-09-15T00:45:37.242Z,98850.00
2022-09-15T00:48:49.434Z,98857.53
2022-09-15T00:52:07.396Z,98869.16
2022-09-15T00:55:35.932Z,98872.34
2022-09-15T00:58:44.100Z,98896.31
2022-09-15T01:01:49.979Z,98894.41
2022-09-15T01:04:58.216Z,98905.94
2022-09-15T01:08:13.499Z,98900.06
2022-09-15T01:11:17.067Z,98893.53
2022-09-15T01:14:20.228Z,98899.25
2022-09-15T01:17:34.518Z,98899.50
2022-09-15T01:21:02.651Z,98907.59
2022-09-15T01:24:33.560Z,98905.72
2022-09-15T01:28:13.933Z,98908.16
2022-09-15T01:31:24.666Z,98897.03
2022-09-15T01:34:33.922Z,98890.25
2022-09-15T01:37:44.803Z,98886.97
2022-09-15T01:41:18.269Z,98882.63
2022-09-15T01:44:44.276Z,98872.06
2022-09-15T01:47:48.623Z,98871.50
2022-09-15T01:50:56.488Z,98877.97
2022-09-15T01:54:01.345Z,98878.22
2022-09-15T01:57:04.158Z,98895.69
2022-09-15T02:00:07.837Z,98891.13
2022-09-15T02:03:40.741Z,98887.50
2022-09-15T02:06:55.586Z,98889.31
2022-09-15T02:10:03.819Z,98887.19
2022-09-15T02:13:17.970Z,98889.06
2022-09-15T02:16:23.821Z,98887.69
2022-09-15T02:19:31.700Z,98879.59
2022-09-15T02:22:38.041Z,98883.03
2022-09-15T02:25:51.635Z,98879.84
2022-09-15T02:28:55.783Z,98884.91
2022-09-15T02:32:03.775Z,98883.19
2022-09-15T02:35:10.047Z,98884.16
2022-09-15T02:38:13.077Z,98879.34
2022-09-15T02:41:16.201Z,98893.31
2022-09-15T02:44:19.627Z,98881.47
2022-09-15T02:47:23.569Z,98887.78
2022-09-15T02:50:28.725Z,98904.75
2022-09-15T02:53:31.675Z,98897.75
2022-09-15T02:56:34.505Z,98895.53
2022-09-15T02:59:56.112Z,98905.75
2022-09-15T03:02:59.040Z,98899.69
2022-09-15T03:06:17.188Z,98894.56
2022-09-15T03:09:19.879Z,98899.69
2022-09-15T03:12:22.896Z,98895.69
2022-09-15T03:15:26.685Z,98895.78
2022-09-15T03:18:30.673Z,98894.47
2022-09-15T03:21:33.537Z,98895.84
2022-09-15T03:24:37.632Z,98888.81
2022-09-15T03:27:40.790Z,98905.50
2022-09-15T03:30:44.270Z,98895.22
2022-09-15T03:33:47.619Z,98896.72
2022-09-15T03:36:50.808Z,98901.66
2022-09-15T03:39:53.979Z,98897.28
2022-09-15T03:42:57.195Z,98900.22
2022-09-15T03:46:02.720Z,98893.66
2022-09-15T03:49:06.083Z,98902.56
2022-09-15T03:52:09.000Z,98896.03
2022-09-15T03:55:12.108Z,98896.50
2022-09-15T03:58:16.198Z,98897.81
2022-09-15T04:01:20.927Z,98903.22
2022-09-15T04:04:24.249Z,98894.06
2022-09-15T04:07:27.296Z,98898.06
2022-09-15T04:10:31.193Z,98908.63
2022-09-15T04:13:34.734Z,98911.78
2022-09-15T04:16:37.809Z,98917.75
2022-09-15T04:19:41.600Z,98917.75
2022-09-15T04:22:45.178Z,98933.37
2022-09-15T04:25:58.692Z,98927.66
2022-09-15T04:29:04.771Z,98922.00
2022-09-15T04:32:08.375Z,98924.13
2022-09-15T04:35:12.154Z,98920.19
2022-09-15T04:38:15.304Z,98920.44
2022-09-15T04:41:19.401Z,98941.78
2022-09-15T04:44:22.171Z,98942.94
2022-09-15T04:47:26.000Z,98953.62
2022-09-15T04:50:28.821Z,98948.81
2022-09-15T04:53:37.756Z,98942.91
2022-09-15T04:56:40.924Z,98942.91
2022-09-15T04:59:43.868Z,98941.87
2022-09-15T05:02:46.609Z,98939.97
2022-09-15T05:05:49.794Z,98933.53
2022-09-15T05:08:54.637Z,98927.97
2022-09-15T05:11:58.166Z,98930.53
2022-09-15T05:15:00.949Z,98939.75
2022-09-15T05:18:05.875Z,98948.22
2022-09-15T05:21:10.631Z,98958.84
2022-09-15T05:24:13.941Z,98962.78
2022-09-15T05:27:16.976Z,98972.44
2022-09-15T05:33:42.745Z,98999.59
2022-09-15T05:36:45.794Z,98993.56
2022-09-15T05:39:48.617Z,98998.38
2022-09-15T05:42:51.853Z,99004.13
2022-09-15T05:45:55.069Z,98999.06
2022-09-15T05:48:58.657Z,98992.03
2022-09-15T05:52:01.509Z,99002.94
2022-09-15T05:55:05.130Z,99005.13
2022-09-15T05:58:08.179Z,99007.59
2022-09-15T06:01:33.566Z,98998.25
2022-09-15T06:04:36.817Z,98993.75
2022-09-15T06:07:39.767Z,98984.34
2022-09-15T06:10:43.221Z,98981.97
2022-09-15T06:13:46.717Z,98983.09
2022-09-15T06:16:49.851Z,98987.53
2022-09-15T06:19:52.754Z,98990.31
2022-09-15T06:22:56.621Z,98994.22
2022-09-15T06:26:11.515Z,98995.63
2022-09-15T06:29:15.003Z,98994.56
2022-09-15T06:32:37.698Z,98996.00
2022-09-15T06:35:41.527Z,99015.84
2022-09-15T06:38:44.836Z,99029.91
2022-09-15T06:42:01.737Z,99030.28
2022-09-15T06:45:05.855Z,99032.28
2022-09-15T06:48:23.891Z,99025.31
2022-09-15T06:51:31.381Z,99028.41
2022-09-15T06:54:34.768Z,99036.28
2022-09-15T06:57:37.408Z,99035.53
2022-09-15T07:00:40.436Z,99032.41
2022-09-15T07:03:44.130Z,99046.19
2022-09-15T07:06:46.995Z,99041.97
2022-09-15T07:09:50.093Z,99036.06
2022-09-15T07:12:53.139Z,99026.41
2022-09-15T07:16:01.337Z,99024.38
2022-09-15T07:19:05.909Z,99024.69
2022-09-15T07:22:08.893Z,99029.94
2022-09-15T07:25:12.011Z,99043.06
2022-09-15T07:28:15.363Z,99044.22
2022-09-15T07:31:21.095Z,99050.41
2022-09-15T07:34:23.851Z,99055.31
2022-09-15T07:37:26.995Z,99048.09
2022-09-15T07:40:29.870Z,99055.53
2022-09-15T07:43:33.595Z,99058.44
2022-09-15T07:46:36.495Z,99059.72
2022-09-15T07:49:45.752Z,99066.91
2022-09-15T07:52:48.801Z,99068.66
2022-09-15T07:59:43.607Z,99067.34
2022-09-15T08:02:46.617Z,99059.78
2022-09-15T08:05:50.004Z,99053.38
2022-09-15T08:08:59.321Z,99065.84
2022-09-15T08:12:04.415Z,99067.78
2022-09-15T08:15:07.370Z,99064.84
2022-09-15T08:18:10.568Z,99059.97
2022-09-15T08:21:17.076Z,99067.62
2022-09-15T08:24:22.749Z,99064.97
2022-09-15T08:27:25.610Z,99063.31
2022-09-15T08:30:29.022Z,99072.97
2022-09-15T08:33:32.720Z,99059.97
2022-09-15T08:36:36.042Z,99059.19
2022-09-15T08:39:38.890Z,99051.66
2022-09-15T08:42:45.039Z,99053.38
2022-09-15T08:46:07.849Z,99049.59
2022-09-15T08:49:30.518Z,99031.97
2022-09-15T08:52:46.390Z,99027.34
2022-09-15T08:55:53.242Z,99032.22
2022-09-15T08:58:56.099Z,99024.91
2022-09-15T09:02:23.779Z,99029.25
2022-09-15T09:05:45.678Z,99032.19
2022-09-15T09:09:01.346Z,99009.81
2022-09-15T09:12:26.469Z,99004.31
2022-09-15T09:15:39.795Z,98999.44
2022-09-15T09:18:46.920Z,98994.94
2022-09-15T09:22:00.135Z,98987.47
2022-09-15T09:25:16.233Z,98988.22
2022-09-15T09:28:50.166Z,98992.50
2022-09-15T09:31:53.499Z,98977.41
2022-09-15T09:35:28.988Z,98960.97
2022-09-15T09:38:35.974Z,98966.09
2022-09-15T09:41:38.939Z,98964.03
2022-09-15T09:44:42.028Z,98976.91
2022-09-15T09:47:46.467Z,98972.50
2022-09-15T09:50:50.788Z,98985.44
2022-09-15T09:53:54.240Z,98977.22
2022-09-15T09:57:17.017Z,98968.25
2022-09-15T10:00:39.092Z,98957.00
2022-09-15T10:03:43.895Z,98949.72
2022-09-15T10:06:46.961Z,98945.06
2022-09-15T10:09:55.670Z,98939.50
2022-09-15T10:12:59.854Z,98930.09
2022-09-15T10:16:05.676Z,98928.13
2022-09-15T10:19:13.174Z,98930.16
2022-09-15T10:22:29.064Z,98920.50
2022-09-15T10:25:57.513Z,98926.13
2022-09-15T10:29:19.076Z,98923.97
2022-09-15T10:32:30.253Z,98897.56
2022-09-15T10:35:33.533Z,98894.91
2022-09-15T10:38:46.978Z,98893.28
2022-09-15T10:42:04.557Z,98894.03
2022-09-15T10:45:13.338Z,98896.37
2022-09-15T10:49:01.075Z,98909.63
2022-09-15T10:52:13.151Z,98908.94
2022-09-15T10:55:51.663Z,98905.22
2022-09-15T10:59:05.414Z,98905.63
2022-09-15T11:03:02.894Z,98900.69
2022-09-15T11:06:27.001Z,98898.41
2022-09-15T11:09:35.210Z,98889.63
2022-09-15T11:12:48.722Z,98895.56
2022-09-15T11:16:20.137Z,98891.97
2022-09-15T11:19:43.810Z,98888.72
2022-09-15T11:22:53.107Z,98885.56
2022-09-15T11:26:04.607Z,98897.94
2022-09-15T11:29:21.814Z,98900.69
2022-09-15T11:32:28.304Z,98894.47
2022-09-15T11:35:47.903Z,98894.91
2022-09-15T11:38:53.652Z,98898.09
2022-09-15T11:42:04.821Z,98897.09
2022-09-15T11:45:16.064Z,98892.03
2022-09-15T11:48:25.541Z,98880.56
2022-09-15T11:51:29.401Z,98868.50
2022-09-15T11:54:43.056Z,98865.19
2022-09-15T11:58:22.159Z,98848.31
2022-09-15T12:01:31.153Z,98842.28
2022-09-15T12:05:05.379Z,98833.69
2022-09-15T12:08:18.972Z,98832.53
2022-09-15T12:11:24.990Z,98833.72
2022-09-15T12:14:47.514Z,98835.56
2022-09-15T12:17:50.781Z,98838.56
2022-09-15T12:21:00.175Z,98847.84
2022-09-15T12:24:40.314Z,98839.19
2022-09-15T12:27:43.426Z,98840.56
2022-09-15T12:30:46.374Z,98832.63
2022-09-15T12:33:51.776Z,98828.91
2022-09-15T12:37:07.882Z,98825.63
2022-09-15T12:40:41.832Z,98815.34
2022-09-15T12:44:24.801Z,98811.06
2022-09-15T12:47:40.463Z,98808.00
2022-09-15T12:50:44.862Z,98808.34
2022-09-15T12:53:52.973Z,98800.00
2022-09-15T12:56:56.608Z,98799.94
2022-09-15T13:00:21.076Z,98793.09
2022-09-15T13:07:15.476Z,98807.22
2022-09-15T13:10:31.187Z,98796.69
2022-09-15T13:13:39.461Z,98763.22
2022-09-15T13:16:44.117Z,98766.00
2022-09-15T13:19:48.409Z,98803.25
2022-09-15T13:22:53.277Z,98817.97
2022-09-15T13:25:58.093Z,98871.91
2022-09-15T13:29:02.416Z,98904.63
2022-09-15T13:32:21.597Z,98863.59
2022-09-15T13:35:25.012Z,98819.41
2022-09-15T13:38:39.945Z,98844.19
2022-09-15T13:42:04.787Z,98845.16
2022-09-15T13:45:29.462Z,98830.75
2022-09-15T13:48:41.559Z,98842.37
2022-09-15T13:51:46.406Z,98834.47
2022-09-15T13:55:21.606Z,98820.06
2022-09-15T14:01:48.856Z,98813.34
2022-09-15T14:04:52.048Z,98800.53
2022-09-15T14:08:01.664Z,98819.69
2022-09-15T14:11:08.615Z,98851.06
2022-09-15T14:14:29.363Z,98802.09
2022-09-15T14:17:34.214Z,98788.75
2022-09-15T14:20:37.812Z,98823.31
2022-09-15T14:23:48.860Z,98816.28
2022-09-15T14:26:51.519Z,98823.72
2022-09-15T14:29:57.726Z,98808.06
2022-09-15T14:33:01.389Z,98817.34
2022-09-15T14:36:15.366Z,98824.66
2022-09-15T14:39:19.775Z,98849.03
2022-09-15T14:42:31.123Z,98835.22
2022-09-15T14:46:02.363Z,98859.88
2022-09-15T14:49:09.791Z,98861.94
2022-09-15T14:52:25.971Z,98853.25
2022-09-15T14:55:37.615Z,98867.28
2022-09-15T14:59:01.114Z,98863.56
2022-09-15T15:02:21.202Z,98857.34
2022-09-15T15:05:30.338Z,98848.91
2022-09-15T15:08:41.723Z,98862.12
2022-09-15T15:11:44.507Z,98870.41
2022-09-15T15:14:47.413Z,98865.03
2022-09-15T15:17:52.685Z,98872.19
2022-09-15T15:20:55.599Z,98875.47
2022-09-15T15:23:58.235Z,98873.09
2022-09-15T15:27:32.671Z,98874.03
2022-09-15T15:30:46.636Z,98877.56
2022-09-15T15:33:53.188Z,98826.53
2022-09-15T15:37:03.003Z,98815.22
2022-09-15T15:40:12.748Z,98813.91
2022-09-15T15:43:26.333Z,98806.88
2022-09-15T15:46:54.492Z,98824.22
2022-09-15T15:50:18.832Z,98866.00
2022-09-15T15:53:22.480Z,98859.16
2022-09-15T15:56:25.611Z,98856.06
2022-09-15T15:59:28.315Z,98853.69
2022-09-15T16:02:31.076Z,98851.56
2022-09-15T16:05:37.644Z,98844.25
2022-09-15T16:08:43.235Z,98826.16
2022-09-15T16:11:46.072Z,98817.56
2022-09-15T16:14:48.638Z,98813.47
2022-09-15T16:17:51.392Z,98805.13
2022-09-15T16:20:54.266Z,98801.91
2022-09-15T16:23:57.012Z,98801.84
2022-09-15T16:26:59.584Z,98795.38
2022-09-15T16:30:03.717Z,98791.06
2022-09-15T16:33:06.596Z,98785.34
2022-09-15T16:36:13.934Z,98753.44
2022-09-15T16:39:16.476Z,98762.09
2022-09-15T16:42:19.228Z,98769.94
2022-09-15T16:45:26.319Z,98771.78
2022-09-15T16:48:29.050Z,98778.50
2022-09-15T16:51:31.928Z,98777.12
2022-09-15T16:54:34.884Z,98785.47
2022-09-15T16:57:37.352Z,98796.75
2022-09-15T17:00:40.456Z,98797.50
2022-09-15T17:03:43.394Z,98801.78
2022-09-15T17:06:46.316Z,98805.56
2022-09-15T17:09:49.899Z,98815.22
2022-09-15T17:12:53.507Z,98820.06
2022-09-15T17:15:56.350Z,98807.88
2022-09-15T17:18:59.169Z,98818.94
2022-09-15T17:22:01.863Z,98802.09
2022-09-15T17:25:34.967Z,98804.47
2022-09-15T17:28:37.861Z,98816.59
2022-09-15T17:31:41.282Z,98815.44
2022-09-15T17:34:43.839Z,98825.66
2022-09-15T17:37:46.737Z,98809.28
2022-09-15T17:40:52.587Z,98803.66
2022-09-15T17:43:55.445Z,98805.22
2022-09-15T17:46:58.641Z,98802.25
2022-09-15T17:50:01.373Z,98799.25
2022-09-15T17:53:17.445Z,98811.34
2022-09-15T17:56:20.268Z,98816.19
2022-09-15T17:59:22.844Z,98814.47
2022-09-15T18:02:25.770Z,98803.00
2022-09-15T18:05:32.100Z,98798.59
2022-09-15T18:08:38.418Z,98796.97
2022-09-15T18:11:41.419Z,98810.94
2022-09-15T18:14:43.890Z,98796.81
2022-09-15T18:17:48.209Z,98797.78
2022-09-15T18:20:53.140Z,98804.50
2022-09-15T18:23:56.108Z,98807.94
2022-09-15T18:26:58.654Z,98808.38
2022-09-15T18:30:01.605Z,98812.63
2022-09-15T18:33:04.209Z,98820.72
2022-09-15T18:36:07.917Z,98820.16
2022-09-15T18:39:11.960Z,98825.53
2022-09-15T18:42:14.751Z,98821.44
2022-09-15T18:45:18.271Z,98819.81
2022-09-15T18:48:21.252Z,98822.75
2022-09-15T18:51:29.284Z,98828.63
2022-09-15T18:54:46.740Z,98837.22
2022-09-15T18:57:50.871Z,98828.88
2022-09-15T19:00:59.562Z,98828.31
2022-09-15T19:04:02.793Z,98837.69
2022-09-15T19:07:05.683Z,98840.28
2022-09-15T19:10:10.856Z,98839.22
2022-09-15T19:13:15.570Z,98848.34
2022-09-15T19:16:20.192Z,98859.03
2022-09-15T19:19:25.873Z,98857.75
2022-09-15T19:22:28.775Z,98843.94
2022-09-15T19:25:31.794Z,98855.97
2022-09-15T19:28:34.517Z,98851.31
2022-09-15T19:31:41.804Z,98852.13
2022-09-15T19:34:48.206Z,98841.34
2022-09-15T19:37:51.085Z,98856.13
2022-09-15T19:40:53.696Z,98855.31
2022-09-15T19:43:56.721Z,98854.75
2022-09-15T19:46:59.642Z,98864.94
2022-09-15T19:50:03.242Z,98868.53
2022-09-15T19:53:05.814Z,98861.53
2022-09-15T19:56:13.931Z,98871.63
2022-09-15T19:59:17.271Z,98873.50
2022-09-15T20:02:20.193Z,98876.44
2022-09-15T20:05:23.074Z,98880.44
2022-09-15T20:08:26.863Z,98881.16
2022-09-15T20:11:30.211Z,98875.06
2022-09-15T20:14:32.679Z,98882.34
2022-09-15T20:17:35.823Z,98884.47
2022-09-15T20:20:39.682Z,98892.16
2022-09-15T20:23:44.090Z,98902.13
2022-09-15T20:26:47.483Z,98901.06
2022-09-15T20:29:50.323Z,98907.75
2022-09-15T20:32:52.876Z,98904.81
2022-09-15T20:35:55.726Z,98900.25
2022-09-15T20:39:00.246Z,98906.69
2022-09-15T20:42:03.096Z,98902.81
2022-09-15T20:45:06.549Z,98908.59
2022-09-15T20:48:09.352Z,98914.53
2022-09-15T20:51:16.858Z,98919.34
2022-09-15T20:54:19.634Z,98926.25
2022-09-15T20:57:22.328Z,98928.97
2022-09-15T21:00:26.602Z,98941.59
2022-09-15T21:03:30.555Z,98943.47
2022-09-15T21:06:34.039Z,98944.53
2022-09-15T21:09:36.546Z,98945.94
2022-09-15T21:12:39.297Z,98938.56
2022-09-15T21:15:41.819Z,98940.09
2022-09-15T21:18:45.402Z,98942.66
2022-09-15T21:21:47.992Z,98943.38
2022-09-15T21:24:50.848Z,98935.06
2022-09-15T21:27:53.320Z,98942.06
2022-09-15T21:31:08.109Z,98947.09
2022-09-15T21:34:13.259Z,98945.56
2022-09-15T21:37:16.041Z,98941.66
2022-09-15T21:40:18.729Z,98922.62
2022-09-15T21:43:21.674Z,98930.38
2022-09-15T21:46:28.724Z,98943.00
2022-09-15T21:49:31.442Z,98947.66
2022-09-15T21:52:33.967Z,98961.56
2022-09-15T21:55:37.596Z,98961.31
2022-09-15T21:58:43.005Z,98969.44
2022-09-15T22:01:45.889Z,98981.25
2022-09-15T22:04:48.650Z,98974.31
2022-09-15T22:07:51.109Z,98999.44
2022-09-15T22:10:58.820Z,99008.16
2022-09-15T22:14:03.082Z,99006.97
2022-09-15T22:17:06.008Z,99014.09
2022-09-15T22:20:12.180Z,99020.75
2022-09-15T22:23:14.953Z,99031.53
2022-09-15T22:26:23.689Z,99031.28
2022-09-15T22:29:26.581Z,99027.31
2022-09-15T22:32:30.361Z,99037.16
2022-09-15T22:35:33.311Z,99033.75
2022-09-15T22:38:36.403Z,99034.78
2022-09-15T22:41:39.697Z,99031.75
2022-09-15T22:44:42.473Z,99030.00
2022-09-15T22:47:45.358Z,99041.16
2022-09-15T22:50:47.879Z,99043.25
2022-09-15T22:53:54.609Z,99050.28
2022-09-15T22:56:57.271Z,99054.13
2022-09-15T23:00:00.087Z,99061.69
2022-09-15T23:03:02.642Z,99071.41
2022-09-15T23:06:06.202Z,99069.75
2022-09-15T23:09:10.820Z,99064.97
2022-09-15T23:12:13.885Z,99070.44
2022-09-15T23:15:16.548Z,99086.50
2022-09-15T23:18:19.461Z,99100.97
2022-09-15T23:21:22.221Z,99106.72
2022-09-15T23:24:25.952Z,99114.28
2022-09-15T23:27:28.394Z,99109.97
2022-09-15T23:30:31.254Z,99120.41
2022-09-15T23:33:34.369Z,99116.25
2022-09-15T23:36:37.588Z,99119.59
2022-09-15T23:39:40.458Z,99122.28
2022-09-15T23:42:44.442Z,99123.63
2022-09-15T23:45:47.121Z,99114.16
2022-09-15T23:48:49.910Z,99098.59
2022-09-15T23:51:52.676Z,99108.47
2022-09-15T23:54:55.463Z,99106.97
2022-09-15T23:57:58.228Z,99109.06
